createdAt,value
2017-08-09T00:00:30.333Z,99983
2017-08-09T00:01:31.391Z,99987
2017-08-09T00:02:31.737Z,99981
2017-08-09T00:03:30.455Z,99982
2017-08-09T00:04:30.465Z,99974
2017-08-09T00:05:31.642Z,99974
2017-08-09T00:06:30.563Z,99987
2017-08-09T00:07:31.603Z,99988
2017-08-09T00:08:30.988Z,99982
2017-08-09T00:09:30.886Z,99983
2017-08-09T00:10:32.460Z,99981
2017-08-09T00:11:32.622Z,99983
2017-08-09T00:12:30.879Z,99986
2017-08-09T00:13:32.611Z,99989
2017-08-09T00:14:32.225Z,99989
2017-08-09T00:15:32.811Z,99990
2017-08-09T00:16:32.132Z,99990
2017-08-09T00:17:31.147Z,99993
2017-08-09T00:18:32.285Z,99995
2017-08-09T00:19:31.375Z,99996
2017-08-09T00:20:32.712Z,99995
2017-08-09T00:21:32.455Z,100003
2017-08-09T00:22:32.462Z,100003
2017-08-09T00:23:31.442Z,100000
2017-08-09T00:24:33.324Z,100002
2017-08-09T00:25:32.691Z,100005
2017-08-09T00:26:32.945Z,100002
2017-08-09T00:27:31.689Z,99997
2017-08-09T00:28:31.888Z,100001
2017-08-09T00:29:33.668Z,99997
2017-08-09T00:30:33.733Z,99994
2017-08-09T00:31:32.136Z,99993
2017-08-09T00:32:34.110Z,99993
2017-08-09T00:33:33.764Z,99990
2017-08-09T00:34:32.143Z,99986
2017-08-09T00:35:32.220Z,99986
2017-08-09T00:36:32.401Z,99982
2017-08-09T00:37:33.986Z,99981
2017-08-09T00:38:34.403Z,99979
2017-08-09T00:39:33.326Z,99981
2017-08-09T00:40:33.365Z,99979
2017-08-09T00:41:34.230Z,99985
2017-08-09T00:42:34.254Z,99984
2017-08-09T00:43:32.528Z,99990
2017-08-09T00:44:34.605Z,99986
2017-08-09T00:45:32.635Z,99986
2017-08-09T00:46:32.732Z,99988
2017-08-09T00:47:33.883Z,99987
2017-08-09T00:48:34.548Z,99983
2017-08-09T00:49:33.029Z,99981
2017-08-09T00:50:34.943Z,99981
2017-08-09T00:51:33.209Z,99974
2017-08-09T00:52:34.897Z,99986
2017-08-09T00:53:34.144Z,99986
2017-08-09T00:54:34.890Z,99987
2017-08-09T00:55:33.295Z,99989
2017-08-09T00:56:35.339Z,99991
2017-08-09T00:57:34.401Z,99984
2017-08-09T00:58:33.485Z,99988
2017-08-09T00:59:33.673Z,99987
2017-08-09T01:00:35.383Z,100000
2017-08-09T01:01:33.753Z,99996
2017-08-09T01:02:35.060Z,100002
2017-08-09T01:03:33.800Z,100007
2017-08-09T01:04:35.533Z,100005
2017-08-09T01:05:34.914Z,100006
2017-08-09T01:06:35.814Z,100007
2017-08-09T01:07:35.898Z,100007
2017-08-09T01:08:36.934Z,100007
2017-08-09T01:09:34.216Z,100010
2017-08-09T01:10:34.413Z,100007
2017-08-09T01:11:34.450Z,100007
2017-08-09T01:12:35.416Z,100004
2017-08-09T01:13:36.165Z,100001
2017-08-09T01:14:34.942Z,100011
2017-08-09T01:15:34.564Z,100013
2017-08-09T01:16:35.609Z,100012
2017-08-09T01:17:36.261Z,100013
2017-08-09T01:18:34.814Z,100011
2017-08-09T01:19:34.744Z,100011
2017-08-09T01:20:35.001Z,100007
2017-08-09T01:21:34.801Z,100010
2017-08-09T01:22:36.502Z,100014
2017-08-09T01:23:36.685Z,100013
2017-08-09T01:24:37.182Z,100012
2017-08-09T01:25:35.774Z,100009
2017-08-09T01:26:37.775Z,100013
2017-08-09T01:27:36.064Z,100011
2017-08-09T01:28:35.734Z,100010
2017-08-09T01:29:35.945Z,100012
2017-08-09T01:30:37.075Z,100005
2017-08-09T01:31:36.007Z,100015
2017-08-09T01:32:37.317Z,100015
2017-08-09T01:33:35.413Z,100012
2017-08-09T01:34:37.742Z,100004
2017-08-09T01:35:36.531Z,100014
2017-08-09T01:36:35.644Z,100021
2017-08-09T01:37:36.711Z,100016
2017-08-09T01:38:36.793Z,100019
2017-08-09T01:39:37.427Z,100018
2017-08-09T01:40:36.750Z,100013
2017-08-09T01:41:35.764Z,100007
2017-08-09T01:42:37.509Z,100018
2017-08-09T01:43:37.515Z,100021
2017-08-09T01:44:36.319Z,100022
2017-08-09T01:45:36.107Z,100024
2017-08-09T01:46:36.077Z,100020
2017-08-09T01:47:37.844Z,100021
2017-08-09T01:48:37.157Z,100025
2017-08-09T01:49:37.856Z,100026
2017-08-09T01:50:38.255Z,100026
2017-08-09T01:51:38.133Z,100020
2017-08-09T01:52:36.291Z,100029
2017-08-09T01:53:36.324Z,100032
2017-08-09T01:54:38.131Z,100039
2017-08-09T01:55:36.514Z,100025
2017-08-09T01:56:36.950Z,100037
2017-08-09T01:57:37.669Z,100032
2017-08-09T01:58:36.623Z,100032
2017-08-09T01:59:38.546Z,100020
2017-08-09T02:00:37.837Z,100034
2017-08-09T02:01:37.091Z,100032
2017-08-09T02:02:37.179Z,100019
2017-08-09T02:03:38.853Z,100028
2017-08-09T02:04:37.154Z,100028
2017-08-09T02:05:37.045Z,100030
2017-08-09T02:06:38.832Z,100029
2017-08-09T02:07:38.213Z,100030
2017-08-09T02:08:37.700Z,100038
2017-08-09T02:09:37.240Z,100031
2017-08-09T02:10:37.420Z,100026
2017-08-09T02:11:38.954Z,100041
2017-08-09T02:12:37.422Z,100032
2017-08-09T02:13:38.458Z,100028
2017-08-09T02:14:39.333Z,100035
2017-08-09T02:15:37.452Z,100033
2017-08-09T02:16:39.233Z,100032
2017-08-09T02:17:38.474Z,100024
2017-08-09T02:18:38.611Z,100032
2017-08-09T02:19:38.645Z,100023
2017-08-09T02:20:40.836Z,100028
2017-08-09T02:21:37.900Z,100034
2017-08-09T02:22:39.484Z,100019
2017-08-09T02:23:39.573Z,100031
2017-08-09T02:24:39.583Z,100023
2017-08-09T02:25:37.949Z,100022
2017-08-09T02:26:38.310Z,100022
2017-08-09T02:27:39.687Z,100015
2017-08-09T02:28:38.148Z,100018
2017-08-09T02:29:39.084Z,100030
2017-08-09T02:30:40.013Z,100029
2017-08-09T02:31:38.524Z,100030
2017-08-09T02:32:39.564Z,100022
2017-08-09T02:33:38.406Z,100024
2017-08-09T02:34:39.748Z,100035
2017-08-09T02:35:41.346Z,100035
2017-08-09T02:36:39.667Z,100038
2017-08-09T02:37:39.625Z,100038
2017-08-09T02:38:39.029Z,100037
2017-08-09T02:39:38.766Z,100037
2017-08-09T02:40:40.411Z,100042
2017-08-09T02:41:40.496Z,100041
2017-08-09T02:42:38.778Z,100043
2017-08-09T02:43:39.908Z,100040
2017-08-09T02:44:39.500Z,100048
2017-08-09T02:45:39.153Z,100047
2017-08-09T02:46:39.160Z,100048
2017-08-09T02:47:41.040Z,100049
2017-08-09T02:48:39.317Z,100050
2017-08-09T02:49:40.984Z,100052
2017-08-09T02:50:40.477Z,100050
2017-08-09T02:51:39.263Z,100044
2017-08-09T02:52:39.274Z,100059
2017-08-09T02:53:40.265Z,100057
2017-08-09T02:54:40.421Z,100055
2017-08-09T02:55:40.433Z,100058
2017-08-09T02:56:39.648Z,100059
2017-08-09T02:57:40.536Z,100058
2017-08-09T02:58:40.606Z,100061
2017-08-09T02:59:39.474Z,100059
2017-08-09T03:00:40.621Z,100053
2017-08-09T03:01:41.261Z,100056
2017-08-09T03:02:39.986Z,100057
2017-08-09T03:03:40.631Z,100055
2017-08-09T03:04:39.808Z,100055
2017-08-09T03:05:39.874Z,100056
2017-08-09T03:06:39.912Z,100056
2017-08-09T03:07:40.079Z,100052
2017-08-09T03:08:42.062Z,100055
2017-08-09T03:09:40.038Z,100067
2017-08-09T03:10:40.038Z,100066
2017-08-09T03:11:41.032Z,100069
2017-08-09T03:12:41.877Z,100066
2017-08-09T03:13:41.182Z,100065
2017-08-09T03:14:40.473Z,100063
2017-08-09T03:15:41.345Z,100061
2017-08-09T03:16:42.093Z,100058
2017-08-09T03:17:40.309Z,100061
2017-08-09T03:18:42.193Z,100062
2017-08-09T03:19:42.141Z,100066
2017-08-09T03:20:41.075Z,100066
2017-08-09T03:21:42.649Z,100069
2017-08-09T03:22:42.256Z,100060
2017-08-09T03:23:40.864Z,100068
2017-08-09T03:24:41.343Z,100067
2017-08-09T03:25:40.946Z,100069
2017-08-09T03:26:42.961Z,100079
2017-08-09T03:27:42.605Z,100067
2017-08-09T03:28:42.753Z,100085
2017-08-09T03:29:40.992Z,100085
2017-08-09T03:30:42.004Z,100080
2017-08-09T03:31:41.183Z,100084
2017-08-09T03:32:41.555Z,100085
2017-08-09T03:33:41.266Z,100083
2017-08-09T03:34:42.305Z,100079
2017-08-09T03:35:41.300Z,100071
2017-08-09T03:36:41.563Z,100072
2017-08-09T03:37:42.356Z,100079
2017-08-09T03:38:43.486Z,100083
2017-08-09T03:39:41.549Z,100083
2017-08-09T03:40:42.616Z,100083
2017-08-09T03:41:42.527Z,100090
2017-08-09T03:42:41.726Z,100091
2017-08-09T03:43:42.759Z,100094
2017-08-09T03:44:42.048Z,100095
2017-08-09T03:45:41.917Z,100096
2017-08-09T03:46:41.996Z,100099
2017-08-09T03:47:42.106Z,100099
2017-08-09T03:48:42.007Z,100096
2017-08-09T03:49:43.901Z,100096
2017-08-09T03:50:42.435Z,100099
2017-08-09T03:51:42.241Z,100100
2017-08-09T03:52:43.373Z,100104
2017-08-09T03:53:42.472Z,100105
2017-08-09T03:54:43.508Z,100110
2017-08-09T03:55:43.466Z,100109
2017-08-09T03:56:43.868Z,100107
2017-08-09T03:57:43.548Z,100108
2017-08-09T03:58:43.675Z,100110
2017-08-09T03:59:43.721Z,100113
2017-08-09T04:00:43.783Z,100109
2017-08-09T04:01:44.458Z,100113
2017-08-09T04:02:44.128Z,100111
2017-08-09T04:03:43.873Z,100109
2017-08-09T04:04:43.933Z,100115
2017-08-09T04:05:44.688Z,100116
2017-08-09T04:06:43.060Z,100123
2017-08-09T04:07:43.246Z,100114
2017-08-09T04:08:44.357Z,100126
2017-08-09T04:09:44.153Z,100117
2017-08-09T04:10:44.224Z,100126
2017-08-09T04:11:43.322Z,100130
2017-08-09T04:12:44.398Z,100133
2017-08-09T04:13:43.377Z,100130
2017-08-09T04:14:45.450Z,100130
2017-08-09T04:15:44.555Z,100135
2017-08-09T04:16:44.566Z,100135
2017-08-09T04:17:43.524Z,100140
2017-08-09T04:18:44.662Z,100138
2017-08-09T04:19:43.767Z,100134
2017-08-09T04:20:45.011Z,100144
2017-08-09T04:21:43.797Z,100143
2017-08-09T04:22:45.439Z,100139
2017-08-09T04:23:43.882Z,100134
2017-08-09T04:24:43.854Z,100145
2017-08-09T04:25:44.817Z,100150
2017-08-09T04:26:45.967Z,100150
2017-08-09T04:27:45.715Z,100149
2017-08-09T04:28:45.701Z,100146
2017-08-09T04:29:45.042Z,100150
2017-08-09T04:30:45.736Z,100151
2017-08-09T04:31:44.110Z,100145
2017-08-09T04:32:46.121Z,100146
2017-08-09T04:33:46.037Z,100150
2017-08-09T04:34:44.433Z,100152
2017-08-09T04:35:45.619Z,100151
2017-08-09T04:36:46.742Z,100154
2017-08-09T04:37:44.671Z,100150
2017-08-09T04:38:44.894Z,100152
2017-08-09T04:39:44.659Z,100158
2017-08-09T04:40:45.737Z,100147
2017-08-09T04:41:45.889Z,100152
2017-08-09T04:42:47.879Z,100162
2017-08-09T04:43:47.898Z,100164
2017-08-09T04:44:46.324Z,100158
2017-08-09T04:45:45.183Z,100157
2017-08-09T04:46:47.043Z,100159
2017-08-09T04:47:45.167Z,100161
2017-08-09T04:48:45.231Z,100158
2017-08-09T04:49:47.085Z,100166
2017-08-09T04:50:45.570Z,100164
2017-08-09T04:51:46.441Z,100158
2017-08-09T04:52:45.495Z,100161
2017-08-09T04:53:45.668Z,100165
2017-08-09T04:54:46.471Z,100161
2017-08-09T04:55:47.400Z,100152
2017-08-09T04:56:47.731Z,100163
2017-08-09T04:57:46.018Z,100163
2017-08-09T04:58:45.968Z,100166
2017-08-09T04:59:47.649Z,100169
2017-08-09T05:00:45.945Z,100171
2017-08-09T05:01:47.768Z,100171
2017-08-09T05:02:47.132Z,100168
2017-08-09T05:03:47.018Z,100172
2017-08-09T05:04:47.792Z,100158
2017-08-09T05:05:47.187Z,100171
2017-08-09T05:06:46.975Z,100174
2017-08-09T05:07:46.295Z,100175
2017-08-09T05:08:46.669Z,100167
2017-08-09T05:09:46.487Z,100178
2017-08-09T05:10:46.449Z,100179
2017-08-09T05:11:48.566Z,100187
2017-08-09T05:12:46.594Z,100174
2017-08-09T05:13:46.684Z,100188
2017-08-09T05:14:50.298Z,100190
2017-08-09T05:15:46.749Z,100186
2017-08-09T05:16:48.505Z,100190
2017-08-09T05:17:48.590Z,100181
2017-08-09T05:18:46.824Z,100193
2017-08-09T05:20:47.030Z,100176
2017-08-09T05:21:47.082Z,100181
2017-08-09T05:22:47.677Z,100183
2017-08-09T05:23:48.118Z,100182
2017-08-09T05:24:47.242Z,100194
2017-08-09T05:25:50.453Z,100190
2017-08-09T05:26:48.139Z,100188
2017-08-09T05:27:48.209Z,100190
2017-08-09T05:28:48.999Z,100189
2017-08-09T05:29:49.112Z,100188
2017-08-09T05:30:47.381Z,100191
2017-08-09T05:31:49.457Z,100193
2017-08-09T05:32:48.499Z,100197
2017-08-09T05:33:48.614Z,100183
2017-08-09T05:34:47.782Z,100199
2017-08-09T05:35:47.726Z,100204
2017-08-09T05:36:49.101Z,100198
2017-08-09T05:37:49.396Z,100192
2017-08-09T05:38:47.919Z,100201
2017-08-09T05:39:47.824Z,100200
2017-08-09T05:40:48.984Z,100190
2017-08-09T05:41:48.692Z,100200
2017-08-09T05:42:48.948Z,100205
2017-08-09T05:43:49.049Z,100205
2017-08-09T05:44:48.272Z,100199
2017-08-09T05:45:48.201Z,100199
2017-08-09T05:46:50.022Z,100209
2017-08-09T05:47:49.403Z,100207
2017-08-09T05:48:48.625Z,100201
2017-08-09T05:49:50.069Z,100207
2017-08-09T05:50:48.502Z,100214
2017-08-09T05:51:48.478Z,100209
2017-08-09T05:52:48.523Z,100219
2017-08-09T05:53:50.991Z,100208
2017-08-09T05:54:49.033Z,100216
2017-08-09T05:55:51.070Z,100219
2017-08-09T05:56:48.723Z,100223
2017-08-09T05:57:48.792Z,100229
2017-08-09T05:58:48.723Z,100230
2017-08-09T05:59:48.884Z,100225
2017-08-09T06:00:50.203Z,100221
2017-08-09T06:01:49.911Z,100221
2017-08-09T06:02:50.017Z,100227
2017-08-09T06:03:49.271Z,100217
2017-08-09T06:04:50.758Z,100227
2017-08-09T06:05:50.142Z,100225
2017-08-09T06:06:49.517Z,100229
2017-08-09T06:07:49.297Z,100232
2017-08-09T06:08:49.306Z,100231
2017-08-09T06:09:52.010Z,100240
2017-08-09T06:10:50.260Z,100233
2017-08-09T06:11:51.547Z,100239
2017-08-09T06:12:50.872Z,100236
2017-08-09T06:13:49.654Z,100232
2017-08-09T06:14:51.183Z,100236
2017-08-09T06:15:49.759Z,100237
2017-08-09T06:16:53.445Z,100225
2017-08-09T06:17:50.640Z,100241
2017-08-09T06:18:50.047Z,100236
2017-08-09T06:19:49.753Z,100239
2017-08-09T06:20:50.558Z,100244
2017-08-09T06:21:52.295Z,100245
2017-08-09T06:22:49.980Z,100242
2017-08-09T06:23:51.032Z,100251
2017-08-09T06:24:51.028Z,100252
2017-08-09T06:25:51.853Z,100246
2017-08-09T06:26:51.809Z,100260
2017-08-09T06:27:51.106Z,100255
2017-08-09T06:28:50.279Z,100255
2017-08-09T06:29:50.222Z,100253
2017-08-09T06:30:50.567Z,100257
2017-08-09T06:31:51.899Z,100258
2017-08-09T06:32:52.187Z,100249
2017-08-09T06:33:50.417Z,100259
2017-08-09T06:34:52.311Z,100259
2017-08-09T06:35:51.425Z,100258
2017-08-09T06:36:51.918Z,100255
2017-08-09T06:37:50.583Z,100256
2017-08-09T06:38:50.605Z,100259
2017-08-09T06:39:52.353Z,100263
2017-08-09T06:40:50.748Z,100265
2017-08-09T06:41:50.807Z,100266
2017-08-09T06:42:52.064Z,100269
2017-08-09T06:43:52.567Z,100271
2017-08-09T06:44:52.569Z,100266
2017-08-09T06:45:50.934Z,100269
2017-08-09T06:46:51.998Z,100269
2017-08-09T06:47:51.014Z,100267
2017-08-09T06:48:52.070Z,100270
2017-08-09T06:49:51.371Z,100269
2017-08-09T06:50:53.020Z,100265
2017-08-09T06:51:51.261Z,100276
2017-08-09T06:52:51.189Z,100269
2017-08-09T06:53:53.084Z,100274
2017-08-09T06:54:51.633Z,100277
2017-08-09T06:55:51.453Z,100283
2017-08-09T06:56:54.355Z,100272
2017-08-09T06:57:52.511Z,100272
2017-08-09T06:58:52.691Z,100276
2017-08-09T06:59:51.427Z,100282
2017-08-09T07:00:51.876Z,100275
2017-08-09T07:01:51.692Z,100278
2017-08-09T07:02:52.376Z,100276
2017-08-09T07:03:51.672Z,100283
2017-08-09T07:04:51.704Z,100274
2017-08-09T07:05:53.441Z,100266
2017-08-09T07:06:53.852Z,100268
2017-08-09T07:07:52.937Z,100273
2017-08-09T07:08:53.678Z,100275
2017-08-09T07:09:53.887Z,100276
2017-08-09T07:10:52.142Z,100263
2017-08-09T07:11:52.127Z,100270
2017-08-09T07:12:55.382Z,100272
2017-08-09T07:13:53.292Z,100268
2017-08-09T07:14:53.356Z,100265
2017-08-09T07:15:54.108Z,100265
2017-08-09T07:16:54.019Z,100265
2017-08-09T07:17:52.367Z,100264
2017-08-09T07:18:52.736Z,100260
2017-08-09T07:19:52.533Z,100264
2017-08-09T07:20:54.310Z,100265
2017-08-09T07:21:52.549Z,100271
2017-08-09T07:22:54.392Z,100264
2017-08-09T07:23:54.494Z,100270
2017-08-09T07:24:53.006Z,100262
2017-08-09T07:25:54.791Z,100279
2017-08-09T07:26:54.499Z,100280
2017-08-09T07:27:53.744Z,100269
2017-08-09T07:28:55.143Z,100279
2017-08-09T07:29:52.984Z,100282
2017-08-09T07:30:53.265Z,100279
2017-08-09T07:31:53.991Z,100300
2017-08-09T07:32:54.776Z,100285
2017-08-09T07:33:54.716Z,100286
2017-08-09T07:34:53.267Z,100288
2017-08-09T07:35:53.234Z,100289
2017-08-09T07:36:54.030Z,100292
2017-08-09T07:37:54.296Z,100284
2017-08-09T07:38:53.293Z,100292
2017-08-09T07:39:53.405Z,100300
2017-08-09T07:40:55.319Z,100295
2017-08-09T07:41:54.028Z,100305
2017-08-09T07:42:53.736Z,100308
2017-08-09T07:43:53.518Z,100299
2017-08-09T07:44:55.193Z,100299
2017-08-09T07:45:55.355Z,100295
2017-08-09T07:46:55.910Z,100294
2017-08-09T07:47:55.497Z,100289
2017-08-09T07:48:55.049Z,100305
2017-08-09T07:49:53.828Z,100298
2017-08-09T07:50:54.715Z,100302
2017-08-09T07:51:53.892Z,100305
2017-08-09T07:52:53.889Z,100294
2017-08-09T07:53:55.536Z,100306
2017-08-09T07:54:55.147Z,100302
2017-08-09T07:55:53.977Z,100300
2017-08-09T07:56:55.109Z,100300
2017-08-09T07:57:54.095Z,100310
2017-08-09T07:58:55.165Z,100310
2017-08-09T07:59:54.219Z,100310
2017-08-09T08:00:57.761Z,100311
2017-08-09T08:01:55.823Z,100316
2017-08-09T08:02:55.242Z,100316
2017-08-09T08:03:56.113Z,100316
2017-08-09T08:04:54.338Z,100320
2017-08-09T08:05:56.300Z,100322
2017-08-09T08:06:55.115Z,100335
2017-08-09T08:07:55.400Z,100329
2017-08-09T08:08:56.361Z,100322
2017-08-09T08:09:56.268Z,100327
2017-08-09T08:10:55.309Z,100322
2017-08-09T08:11:55.180Z,100325
2017-08-09T08:12:55.795Z,100311
2017-08-09T08:13:55.337Z,100324
2017-08-09T08:14:57.447Z,100327
2017-08-09T08:15:54.856Z,100337
2017-08-09T08:16:56.825Z,100328
2017-08-09T08:17:58.511Z,100327
2017-08-09T08:18:58.286Z,100340
2017-08-09T08:19:55.016Z,100342
2017-08-09T08:20:56.687Z,100347
2017-08-09T08:21:58.137Z,100332
2017-08-09T08:22:56.431Z,100340
2017-08-09T08:23:57.090Z,100335
2017-08-09T08:24:55.282Z,100338
2017-08-09T08:25:56.191Z,100334
2017-08-09T08:26:56.793Z,100330
2017-08-09T08:27:58.314Z,100334
2017-08-09T08:28:57.134Z,100346
2017-08-09T08:29:57.138Z,100339
2017-08-09T08:30:56.612Z,100345
2017-08-09T08:31:55.703Z,100348
2017-08-09T08:32:56.755Z,100337
2017-08-09T08:33:59.387Z,100339
2017-08-09T08:34:57.825Z,100328
2017-08-09T08:35:55.946Z,100338
2017-08-09T08:36:57.669Z,100335
2017-08-09T08:37:56.057Z,100341
2017-08-09T08:38:58.071Z,100343
2017-08-09T08:39:56.186Z,100335
2017-08-09T08:40:57.241Z,100337
2017-08-09T08:41:58.023Z,100334
2017-08-09T08:42:58.539Z,100341
2017-08-09T08:43:58.205Z,100336
2017-08-09T08:44:58.096Z,100333
2017-08-09T08:45:57.038Z,100338
2017-08-09T08:46:58.207Z,100341
2017-08-09T08:47:58.293Z,100347
2017-08-09T08:48:57.264Z,100345
2017-08-09T08:49:56.845Z,100340
2017-08-09T08:50:56.809Z,100332
2017-08-09T08:51:56.918Z,100352
2017-08-09T08:52:58.087Z,100353
2017-08-09T08:53:57.069Z,100355
2017-08-09T08:54:57.673Z,100349
2017-08-09T08:55:59.442Z,100352
2017-08-09T08:56:58.979Z,100352
2017-08-09T08:57:59.721Z,100352
2017-08-09T08:58:59.200Z,100362
2017-08-09T08:59:59.858Z,100353
2017-08-09T09:01:00.161Z,100359
2017-08-09T09:01:57.618Z,100351
2017-08-09T09:02:58.509Z,100370
2017-08-09T09:03:58.599Z,100362
2017-08-09T09:04:57.608Z,100357
2017-08-09T09:05:57.689Z,100371
2017-08-09T09:06:58.816Z,100346
2017-08-09T09:07:57.823Z,100357
2017-08-09T09:08:58.887Z,100360
2017-08-09T09:09:57.882Z,100359
2017-08-09T09:10:58.064Z,100367
2017-08-09T09:11:58.376Z,100361
2017-08-09T09:12:59.166Z,100357
2017-08-09T09:13:59.128Z,100366
2017-08-09T09:14:59.910Z,100368
2017-08-09T09:15:58.338Z,100374
2017-08-09T09:16:58.545Z,100372
2017-08-09T09:17:58.715Z,100370
2017-08-09T09:18:58.639Z,100364
2017-08-09T09:20:00.274Z,100369
2017-08-09T09:20:59.582Z,100372
2017-08-09T09:21:58.784Z,100359
2017-08-09T09:22:59.803Z,100366
2017-08-09T09:23:59.889Z,100372
2017-08-09T09:24:59.992Z,100370
2017-08-09T09:25:58.879Z,100365
2017-08-09T09:26:59.702Z,100364
2017-08-09T09:27:58.937Z,100375
2017-08-09T09:28:59.107Z,100380
2017-08-09T09:30:03.041Z,100386
2017-08-09T09:31:00.464Z,100383
2017-08-09T09:32:01.040Z,100373
2017-08-09T09:33:00.334Z,100389
2017-08-09T09:34:01.314Z,100393
2017-08-09T09:35:00.303Z,100376
2017-08-09T09:36:00.440Z,100386
2017-08-09T09:37:02.367Z,100388
2017-08-09T09:38:00.113Z,100392
2017-08-09T09:38:59.566Z,100388
2017-08-09T09:39:59.975Z,100394
2017-08-09T09:41:00.613Z,100390
2017-08-09T09:42:00.635Z,100395
2017-08-09T09:43:01.387Z,100401
2017-08-09T09:44:00.831Z,100399
2017-08-09T09:45:02.630Z,100396
2017-08-09T09:46:00.157Z,100387
2017-08-09T09:47:00.043Z,100388
2017-08-09T09:48:00.149Z,100379
2017-08-09T09:49:02.278Z,100392
2017-08-09T09:50:01.202Z,100376
2017-08-09T09:51:01.251Z,100382
2017-08-09T09:52:00.318Z,100389
2017-08-09T09:53:00.387Z,100384
2017-08-09T09:54:01.067Z,100389
2017-08-09T09:55:02.173Z,100388
2017-08-09T09:56:00.832Z,100387
2017-08-09T09:57:02.949Z,100392
2017-08-09T09:58:01.561Z,100383
2017-08-09T09:59:01.652Z,100386
2017-08-09T10:00:00.719Z,100382
2017-08-09T10:01:00.672Z,100380
2017-08-09T10:02:01.634Z,100387
2017-08-09T10:03:01.599Z,100380
2017-08-09T10:04:01.194Z,100388
2017-08-09T10:05:01.803Z,100388
2017-08-09T10:06:02.009Z,100393
2017-08-09T10:07:02.554Z,100391
2017-08-09T10:08:02.781Z,100392
2017-08-09T10:09:02.147Z,100390
2017-08-09T10:10:01.352Z,100398
2017-08-09T10:11:02.016Z,100403
2017-08-09T10:12:02.731Z,100399
2017-08-09T10:13:02.494Z,100401
2017-08-09T10:14:03.085Z,100387
2017-08-09T10:15:02.616Z,100400
2017-08-09T10:16:02.627Z,100406
2017-08-09T10:17:03.973Z,100404
2017-08-09T10:18:04.445Z,100407
2017-08-09T10:19:01.722Z,100413
2017-08-09T10:20:02.814Z,100407
2017-08-09T10:21:02.029Z,100404
2017-08-09T10:22:04.939Z,100404
2017-08-09T10:23:04.377Z,100405
2017-08-09T10:24:02.596Z,100402
2017-08-09T10:25:01.990Z,100409
2017-08-09T10:26:02.860Z,100416
2017-08-09T10:27:07.100Z,100400
2017-08-09T10:28:04.555Z,100410
2017-08-09T10:29:04.131Z,100402
2017-08-09T10:30:02.212Z,100403
2017-08-09T10:31:04.386Z,100408
2017-08-09T10:32:02.383Z,100409
2017-08-09T10:33:02.534Z,100398
2017-08-09T10:34:02.572Z,100359
2017-08-09T10:35:04.291Z,100415
2017-08-09T10:36:02.597Z,100419
2017-08-09T10:37:03.772Z,100414
2017-08-09T10:38:03.772Z,100411
2017-08-09T10:39:02.889Z,100421
2017-08-09T10:40:02.997Z,100415
2017-08-09T10:41:05.345Z,100426
2017-08-09T10:42:03.022Z,100424
2017-08-09T10:43:03.132Z,100426
2017-08-09T10:44:04.673Z,100418
2017-08-09T10:45:03.074Z,100428
2017-08-09T10:46:03.996Z,100434
2017-08-09T10:47:03.859Z,100426
2017-08-09T10:48:04.211Z,100427
2017-08-09T10:49:05.050Z,100425
2017-08-09T10:50:03.335Z,100428
2017-08-09T10:51:05.138Z,100435
2017-08-09T10:52:03.379Z,100428
2017-08-09T10:53:03.563Z,100447
2017-08-09T10:54:05.346Z,100433
2017-08-09T10:55:05.170Z,100433
2017-08-09T10:56:03.480Z,100436
2017-08-09T10:57:03.584Z,100424
2017-08-09T10:58:05.372Z,100429
2017-08-09T10:59:04.645Z,100432
2017-08-09T11:00:04.815Z,100439
2017-08-09T11:01:04.659Z,100442
2017-08-09T11:02:04.817Z,100440
2017-08-09T11:03:03.964Z,100438
2017-08-09T11:04:04.987Z,100437
2017-08-09T11:05:04.656Z,100427
2017-08-09T11:06:05.738Z,100432
2017-08-09T11:07:04.062Z,100434
2017-08-09T11:08:04.238Z,100432
2017-08-09T11:09:04.752Z,100431
2017-08-09T11:10:05.245Z,100433
2017-08-09T11:11:04.232Z,100440
2017-08-09T11:12:04.800Z,100423
2017-08-09T11:13:04.977Z,100421
2017-08-09T11:14:09.627Z,100419
2017-08-09T11:15:06.426Z,100416
2017-08-09T11:16:07.751Z,100417
2017-08-09T11:17:06.381Z,100420
2017-08-09T11:18:06.623Z,100422
2017-08-09T11:19:05.378Z,100413
2017-08-09T11:20:06.539Z,100410
2017-08-09T11:21:05.419Z,100412
2017-08-09T11:22:08.160Z,100405
2017-08-09T11:23:05.461Z,100411
2017-08-09T11:24:05.933Z,100408
2017-08-09T11:25:06.419Z,100408
2017-08-09T11:26:06.548Z,100407
2017-08-09T11:27:06.638Z,100411
2017-08-09T11:28:07.305Z,100409
2017-08-09T11:29:08.694Z,100406
2017-08-09T11:30:05.254Z,100408
2017-08-09T11:31:08.258Z,100406
2017-08-09T11:32:06.978Z,100407
2017-08-09T11:33:07.035Z,100406
2017-08-09T11:34:06.040Z,100414
2017-08-09T11:35:08.281Z,100411
2017-08-09T11:36:07.060Z,100415
2017-08-09T11:37:05.531Z,100422
2017-08-09T11:38:07.934Z,100417
2017-08-09T11:39:07.197Z,100413
2017-08-09T11:40:06.624Z,100411
2017-08-09T11:41:07.534Z,100409
2017-08-09T11:42:07.535Z,100416
2017-08-09T11:43:05.896Z,100407
2017-08-09T11:44:08.073Z,100411
2017-08-09T11:45:06.003Z,100421
2017-08-09T11:46:06.952Z,100406
2017-08-09T11:47:08.727Z,100418
2017-08-09T11:48:06.818Z,100419
2017-08-09T11:49:08.026Z,100419
2017-08-09T11:50:06.245Z,100413
2017-08-09T11:51:07.293Z,100415
2017-08-09T11:52:06.478Z,100418
2017-08-09T11:53:06.481Z,100425
2017-08-09T11:54:06.558Z,100417
2017-08-09T11:55:08.280Z,100413
2017-08-09T11:56:07.467Z,100414
2017-08-09T11:57:06.806Z,100420
2017-08-09T11:58:07.812Z,100404
2017-08-09T11:59:10.507Z,100417
2017-08-09T12:00:07.469Z,100418
2017-08-09T12:01:07.526Z,100404
2017-08-09T12:02:07.087Z,100413
2017-08-09T12:03:09.542Z,100411
2017-08-09T12:04:08.819Z,100416
2017-08-09T12:05:07.510Z,100416
2017-08-09T12:06:08.213Z,100407
2017-08-09T12:07:07.865Z,100416
2017-08-09T12:08:07.358Z,100410
2017-08-09T12:09:07.498Z,100402
2017-08-09T12:10:08.074Z,100424
2017-08-09T12:11:09.072Z,100411
2017-08-09T12:12:07.651Z,100401
2017-08-09T12:13:07.815Z,100405
2017-08-09T12:14:09.821Z,100408
2017-08-09T12:15:11.349Z,100414
2017-08-09T12:16:09.057Z,100409
2017-08-09T12:17:10.451Z,100408
2017-08-09T12:18:08.721Z,100409
2017-08-09T12:19:09.543Z,100408
2017-08-09T12:20:09.577Z,100411
2017-08-09T12:21:09.498Z,100418
2017-08-09T12:22:09.652Z,100401
2017-08-09T12:23:08.398Z,100416
2017-08-09T12:24:09.056Z,100414
2017-08-09T12:25:10.843Z,100408
2017-08-09T12:26:08.221Z,100399
2017-08-09T12:27:08.073Z,100412
2017-08-09T12:28:08.197Z,100407
2017-08-09T12:29:08.518Z,100415
2017-08-09T12:30:08.438Z,100408
2017-08-09T12:31:09.514Z,100414
2017-08-09T12:32:10.341Z,100405